Список аэропортов
Фактическая погода:

21 августа, 07:00
Температура: +20°C (+20.0*)
Ветер: южный 2 м/с
Давление: *764 мм
несуществ. обл.
Время (МСК)Темп. СВетерВлажностьДавлениеОблачностьОсадки
03:00+16Ю, 1 м/с99%1019 гПаоблачно
04:00+15Ю, 2 м/с99%1019 гПас прояснениями
05:00+15Ю, 1 м/с99%1019 гПас прояснениями
06:00+16Ю, 2 м/с99%1020 гПас прояснениями
07:00+17ЮЗ, 1 м/с94%1020 гПас прояснениями
08:00+20Ю, 1 м/с84%1020 гПаясно
09:00+22Ю, 2 м/с76%1020 гПаясно
10:00+25Ю, 2 м/с68%1020 гПаясно
11:00+27Ю, 3 м/с59%1020 гПаясно
12:00+28ЮЗ, 3 м/с52%1020 гПаясно
13:00+29ЮЗ, 3 м/с47%1020 гПаясно
14:00+23ЮЗ, 2 м/с93%1020 гПаоблачнодождь
15:00+24Ю, 2 м/с90%1019 гПаоблачно
16:00+25Ю, 2 м/с84%1019 гПаоблачно
17:00+27Ю, 2 м/с64%1019 гПаоблачно
18:00+26Ю, 1 м/с66%1019 гПаоблачно
19:00+23Ю, 1 м/с79%1019 гПаясно
20:00+20Ю, 1 м/с91%1019 гПаясно
21:00+18Ю, 1 м/с98%1019 гПаясно
22:00+17Ю, 1 м/с99%1019 гПамалооблачно
23:00+16Ю, 1 м/с100%1019 гПамалооблачно
22 августа
00:00+15Ю, 1 м/с100%1019 гПамалооблачно
01:00+15Ю, 1 м/с99%1019 гПаоблачно
02:00+15Штиль 99%1019 гПаоблачно
03:00+15Штиль 100%1019 гПаоблачно
04:00+14ЮВ, 1 м/с99%1019 гПамалооблачно
05:00+14Ю, 2 м/с99%1019 гПаоблачно
06:00+14Ю, 2 м/с97%1020 гПас прояснениями
07:00+16Ю, 1 м/с94%1019 гПас прояснениями
08:00+18Ю, 1 м/с82%1019 гПамалооблачно
09:00+22Ю, 1 м/с68%1019 гПамалооблачно
10:00+25Ю, 2 м/с58%1019 гПаясно
11:00+27Ю, 2 м/с49%1019 гПаясно
12:00+28ЮЗ, 3 м/с42%1019 гПаясно
13:00+29ЮЗ, 4 м/с32%1019 гПаясно
14:00+29ЮЗ, 4 м/с32%1018 гПаясно
15:00+29ЮЗ, 3 м/с33%1018 гПаоблачно
16:00+28Ю, 3 м/с35%1018 гПаоблачно
17:00+27Ю, 3 м/с40%1018 гПас прояснениями
18:00+25Ю, 2 м/с49%1018 гПаоблачно
19:00+23Ю, 2 м/с60%1018 гПаоблачно
20:00+20Ю, 1 м/с75%1018 гПаоблачно
21:00+18ЮВ, 1 м/с86%1018 гПаоблачно
22:00+17Ю, 2 м/с89%1018 гПас прояснениями
23:00+16Ю, 2 м/с92%1018 гПаоблачно
23 августа
00:00+15Ю, 2 м/с95%1018 гПаоблачно
01:00+14Ю, 1 м/с98%1018 гПаоблачно
02:00+14Ю, 1 м/с99%1018 гПаоблачно
03:00+13Ю, 1 м/с99%1018 гПаоблачно